Terminal Aerodrome Forecast
Issued by NWS

Home | Current Version | Previous Version | Graphics & Text | Print | Product List | Glossary On
Versions: 1 2 3 4 5 6 7 8 9 10 11 12 13 14 15 16 17 18 19 20 21 22 23 24 25 26 27 28 29 30 31 32 33 34 35 36 37 38 39 40 41 42 43 44 45 46 47 48 49 50
000
FTUS43 KLOT 300259 AAB
TAFGYY
TAF AMD
KGYY 300259Z 3003/3024 08004KT P6SM FEW045 SCT150 BKN250
     FM301500 23005KT P6SM SCT040 BKN080
     FM301800 26007KT P6SM VCSH BKN035 PROB30 3018/3024 2SM TSRA
      SCT020 OVC030CB=

USA.gov is the U.S. government's official web portal to all federal, state and local government web resources and services.